Time;durP1;ratioP1;P1;durP2;ratioP2;P2;SDS_P1;SDS_P2;PMS_P1;PMS_P2;Temp;Humidity;BMP_temperature;BMP_pressure;BME280_temperature;BME280_humidity;BME280_pressure;Samples;Min_cycle;Max_cycle;Signal;HPM_P1;HPM_P2
2024/04/07 00:01:53;;;;;;;2.90;2.70;;;25.80;52.50;;;;;;4979363;28;20425;-84
2024/04/07 00:04:19;;;;;;;3.63;2.63;;;25.70;52.60;;;;;;4975828;28;20438;-83
2024/04/07 00:06:48;;;;;;;3.10;2.90;;;25.70;52.60;;;;;;4985402;28;20453;-84
2024/04/07 00:09:14;;;;;;;4.43;3.10;;;25.70;52.70;;;;;;4987511;28;20424;-83
2024/04/07 00:11:42;;;;;;;3.20;2.93;;;25.70;52.90;;;;;;4979685;28;20448;-84
2024/04/07 00:14:08;;;;;;;2.80;2.60;;;25.70;52.80;;;;;;4980187;28;20434;-84
2024/04/07 00:16:35;;;;;;;3.63;3.10;;;25.70;52.90;;;;;;4986718;28;20459;-84
2024/04/07 00:19:01;;;;;;;3.50;3.10;;;25.60;53.00;;;;;;4991930;28;20413;-84
2024/04/07 00:21:28;;;;;;;3.03;2.73;;;25.70;53.10;;;;;;4988291;28;20412;-85
2024/04/07 00:23:56;;;;;;;3.07;2.87;;;25.70;53.20;;;;;;4987105;28;20438;-83
2024/04/07 00:26:23;;;;;;;3.40;3.20;;;25.70;53.10;;;;;;4988638;28;20459;-84
2024/04/07 00:28:50;;;;;;;4.23;2.93;;;25.70;53.10;;;;;;4989447;28;20441;-84
2024/04/07 00:31:17;;;;;;;3.77;3.37;;;25.60;53.20;;;;;;4990480;28;20452;-85
2024/04/07 00:33:43;;;;;;;3.50;3.10;;;25.60;53.30;;;;;;4987923;28;20434;-85
2024/04/07 00:36:10;;;;;;;3.17;2.97;;;25.60;53.40;;;;;;4984640;28;20448;-85
2024/04/07 00:38:36;;;;;;;4.77;3.33;;;25.60;53.50;;;;;;4990455;28;20412;-85
2024/04/07 00:41:04;;;;;;;3.40;3.10;;;25.60;53.50;;;;;;4987427;28;20439;-85
2024/04/07 00:43:31;;;;;;;3.33;2.90;;;25.60;53.60;;;;;;4985280;28;20212;-84
2024/04/07 00:45:58;;;;;;;4.23;3.40;;;25.50;53.50;;;;;;4993345;28;20443;-84
2024/04/07 00:48:25;;;;;;;4.23;3.30;;;25.50;53.50;;;;;;4998713;28;20412;-85
2024/04/07 00:50:53;;;;;;;5.17;3.20;;;25.50;53.80;;;;;;4998118;28;20479;-84
2024/04/07 00:53:19;;;;;;;3.33;3.13;;;25.50;53.80;;;;;;4995891;28;20412;-84
2024/04/07 00:55:46;;;;;;;5.27;3.83;;;25.50;53.80;;;;;;4992438;28;20466;-84
2024/04/07 00:58:15;;;;;;;3.80;3.30;;;25.50;53.80;;;;;;4982911;28;20433;-85
2024/04/07 01:00:42;;;;;;;3.63;3.10;;;25.40;53.90;;;;;;4993969;28;20412;-85
2024/04/07 01:03:08;;;;;;;3.40;3.10;;;25.40;53.80;;;;;;4981161;28;20404;-85
2024/04/07 01:05:40;;;;;;;3.60;3.30;;;25.40;53.90;;;;;;4996338;28;20465;-84
2024/04/07 01:08:06;;;;;;;3.40;3.10;;;25.40;54.00;;;;;;5001502;28;20442;-85
2024/04/07 01:10:34;;;;;;;3.60;3.30;;;25.30;54.00;;;;;;5001387;28;20974;-85
2024/04/07 01:13:00;;;;;;;6.80;3.93;;;25.30;54.00;;;;;;4998276;28;20427;-85
2024/04/07 01:15:28;;;;;;;3.43;3.13;;;25.30;54.00;;;;;;4997961;28;20449;-84
2024/04/07 01:17:54;;;;;;;4.20;3.60;;;25.30;54.10;;;;;;5000252;28;20424;-85
2024/04/07 01:20:22;;;;;;;5.30;4.07;;;25.30;54.00;;;;;;4997333;28;20389;-85
2024/04/07 01:22:49;;;;;;;3.90;3.53;;;25.30;54.00;;;;;;5000445;28;20416;-84
2024/04/07 01:25:17;;;;;;;8.33;4.40;;;25.20;54.00;;;;;;4987470;28;20426;-84
2024/04/07 01:27:47;;;;;;;4.53;4.13;;;25.20;54.10;;;;;;4980996;28;20430;-84
2024/04/07 01:30:13;;;;;;;5.80;4.70;;;25.20;54.10;;;;;;4982449;28;20429;-85
2024/04/07 01:32:42;;;;;;;5.60;4.53;;;25.20;54.00;;;;;;4989425;28;20443;-85
2024/04/07 01:35:09;;;;;;;6.43;5.47;;;25.20;54.10;;;;;;4994333;28;20443;-84
2024/04/07 01:37:36;;;;;;;7.17;6.00;;;25.20;54.70;;;;;;4994695;28;20473;-84
2024/04/07 01:40:03;;;;;;;6.80;5.73;;;25.20;54.20;;;;;;4998031;28;20441;-84
2024/04/07 01:42:32;;;;;;;7.17;5.70;;;25.20;54.20;;;;;;4990492;28;20441;-84
2024/04/07 01:44:58;;;;;;;7.40;6.37;;;25.20;54.20;;;;;;4998264;28;20430;-83
2024/04/07 01:47:25;;;;;;;7.63;6.40;;;25.20;54.10;;;;;;4996744;28;20458;-84
2024/04/07 01:49:52;;;;;;;8.43;7.10;;;25.20;54.40;;;;;;4993367;28;20434;-84
2024/04/07 01:52:19;;;;;;;9.03;6.57;;;25.20;54.40;;;;;;4999280;28;20438;-84
2024/04/07 01:54:45;;;;;;;8.10;6.60;;;25.10;54.30;;;;;;5000485;28;20420;-83
2024/04/07 01:57:12;;;;;;;8.70;7.30;;;25.10;54.40;;;;;;4999970;28;20545;-84
2024/04/07 01:59:39;;;;;;;9.80;7.50;;;25.10;54.40;;;;;;4997677;28;20430;-85
2024/04/07 02:02:07;;;;;;;11.97;8.10;;;25.10;54.50;;;;;;4997911;28;20404;-85
2024/04/07 02:04:33;;;;;;;10.67;8.10;;;25.00;54.40;;;;;;4989553;28;20433;-85
2024/04/07 02:07:01;;;;;;;11.07;8.00;;;25.00;54.50;;;;;;4999713;28;20453;-85
2024/04/07 02:09:27;;;;;;;12.33;8.40;;;25.00;54.60;;;;;;4996829;28;20448;-85
2024/04/07 02:11:54;;;;;;;9.93;8.20;;;25.00;54.70;;;;;;4998987;28;20473;-85
2024/04/07 02:14:21;;;;;;;10.80;8.20;;;25.10;54.80;;;;;;5000102;28;20426;-85
2024/04/07 02:16:49;;;;;;;11.27;8.90;;;25.00;54.80;;;;;;4995235;28;20465;-85
2024/04/07 02:19:16;;;;;;;9.80;7.97;;;25.00;54.90;;;;;;4985148;28;20420;-84
2024/04/07 02:21:43;;;;;;;10.00;8.57;;;25.00;54.90;;;;;;4994593;28;20396;-84
2024/04/07 02:24:09;;;;;;;11.17;8.90;;;25.00;55.00;;;;;;4991495;28;20437;-84
2024/04/07 02:26:37;;;;;;;11.17;8.87;;;25.00;55.00;;;;;;4987534;28;20478;-85
2024/04/07 02:29:03;;;;;;;8.87;7.93;;;25.00;55.20;;;;;;4988701;28;20437;-85
2024/04/07 02:31:31;;;;;;;11.23;8.77;;;25.00;55.20;;;;;;4992614;28;20474;-84
2024/04/07 02:33:59;;;;;;;12.20;9.47;;;25.00;55.30;;;;;;4992633;28;20441;-84
2024/04/07 02:36:26;;;;;;;8.50;7.60;;;24.90;55.00;;;;;;4982012;28;20473;-83
2024/04/07 02:38:54;;;;;;;10.77;8.80;;;24.90;55.20;;;;;;4991014;28;20441;-84
2024/04/07 02:41:21;;;;;;;9.70;7.50;;;24.90;55.30;;;;;;4986997;28;20443;-83
2024/04/07 02:43:48;;;;;;;14.10;8.40;;;24.90;55.30;;;;;;4972669;28;20446;-84
2024/04/07 02:49:01;;;;;;;10.80;9.00;;;24.80;55.50;;;;;;4942024;28;20438;-84
2024/04/07 02:51:28;;;;;;;9.90;8.43;;;24.90;55.50;;;;;;4988576;28;20427;-84
2024/04/07 02:53:55;;;;;;;11.87;9.00;;;24.80;55.50;;;;;;4992003;28;20425;-84
2024/04/07 02:56:21;;;;;;;11.27;9.20;;;24.80;55.50;;;;;;4999902;28;20468;-84
2024/04/07 02:58:49;;;;;;;9.47;8.40;;;24.80;55.50;;;;;;4999217;28;20420;-84
2024/04/07 03:01:15;;;;;;;12.43;9.50;;;24.80;55.50;;;;;;4998746;28;20424;-85
2024/04/07 03:03:42;;;;;;;10.63;8.33;;;24.80;55.60;;;;;;4998636;28;20447;-83
2024/04/07 03:06:09;;;;;;;10.40;8.60;;;24.80;55.80;;;;;;4989652;28;20465;-85
2024/04/07 03:08:37;;;;;;;9.67;8.57;;;24.80;55.70;;;;;;5000722;28;20439;-84
2024/04/07 03:11:03;;;;;;;12.83;8.67;;;24.80;55.80;;;;;;4984461;28;20465;-84
2024/04/07 03:13:30;;;;;;;11.33;8.93;;;24.80;55.90;;;;;;5001047;28;20441;-83
2024/04/07 03:15:57;;;;;;;10.87;8.83;;;24.80;56.00;;;;;;4992396;28;20476;-83
2024/04/07 03:18:24;;;;;;;10.67;8.80;;;24.70;55.70;;;;;;4984016;28;20433;-84
2024/04/07 03:20:50;;;;;;;12.60;8.43;;;24.70;55.70;;;;;;4988953;28;20444;-84
2024/04/07 03:23:18;;;;;;;13.37;9.00;;;24.70;56.00;;;;;;4998896;28;20457;-81
2024/04/07 03:25:45;;;;;;;9.30;7.87;;;24.70;55.90;;;;;;4998053;28;20447;-83
2024/04/07 03:28:12;;;;;;;10.87;8.50;;;24.70;56.00;;;;;;4982954;28;20466;-84
2024/04/07 03:30:38;;;;;;;11.90;9.00;;;24.60;55.90;;;;;;4985887;28;20474;-83
2024/04/07 03:33:05;;;;;;;10.33;8.37;;;24.60;55.70;;;;;;4979703;28;20454;-83
2024/04/07 03:35:32;;;;;;;10.10;8.13;;;24.60;56.10;;;;;;4985353;28;20453;-83
2024/04/07 03:37:59;;;;;;;11.73;8.37;;;24.60;56.10;;;;;;4984688;28;20447;-83
2024/04/07 03:40:28;;;;;;;8.40;7.37;;;24.60;56.00;;;;;;4976262;28;20453;-83
2024/04/07 03:42:55;;;;;;;11.67;8.80;;;24.60;56.10;;;;;;4974950;28;20446;-83
2024/04/07 03:45:23;;;;;;;8.67;7.67;;;24.60;56.20;;;;;;4986332;28;20419;-83
2024/04/07 03:47:50;;;;;;;8.47;7.43;;;24.60;56.20;;;;;;4985955;28;20433;-83
2024/04/07 03:50:17;;;;;;;9.73;7.30;;;24.60;55.80;;;;;;4989019;28;20484;-83
2024/04/07 03:52:43;;;;;;;8.83;7.20;;;24.60;56.10;;;;;;4986279;28;20442;-83
2024/04/07 03:55:11;;;;;;;9.63;7.40;;;24.60;56.00;;;;;;4971063;28;20453;-84
2024/04/07 03:57:38;;;;;;;8.43;7.53;;;24.60;56.10;;;;;;4976180;28;20480;-84
2024/04/07 04:00:07;;;;;;;12.90;7.13;;;24.60;55.90;;;;;;4981086;28;20602;-84
2024/04/07 04:02:34;;;;;;;8.87;7.80;;;24.60;56.20;;;;;;4985225;28;20449;-84
2024/04/07 04:05:02;;;;;;;8.83;7.17;;;24.60;56.40;;;;;;4992332;28;20419;-84
2024/04/07 04:07:29;;;;;;;10.00;7.77;;;24.50;56.20;;;;;;4992640;28;20465;-84
2024/04/07 04:09:56;;;;;;;8.00;6.40;;;24.50;56.20;;;;;;4984870;28;20424;-85
2024/04/07 04:12:23;;;;;;;7.43;6.40;;;24.60;56.60;;;;;;4986396;28;20481;-84
2024/04/07 04:14:51;;;;;;;8.43;6.77;;;24.50;56.30;;;;;;4986302;28;20420;-85
2024/04/07 04:17:17;;;;;;;7.20;6.37;;;24.50;56.30;;;;;;4985756;28;20465;-84
2024/04/07 04:19:44;;;;;;;7.13;6.40;;;24.50;56.20;;;;;;4993796;28;20437;-85
2024/04/07 04:22:10;;;;;;;7.10;6.37;;;24.50;56.40;;;;;;4990978;28;20433;-84
2024/04/07 04:24:38;;;;;;;6.77;6.07;;;24.50;56.40;;;;;;4995935;28;20445;-84
2024/04/07 04:27:05;;;;;;;7.83;6.57;;;24.50;56.40;;;;;;4995695;28;20461;-84
2024/04/07 04:29:33;;;;;;;7.93;6.33;;;24.50;56.20;;;;;;4997443;28;20419;-84
2024/04/07 04:32:00;;;;;;;7.43;5.90;;;24.50;56.50;;;;;;4994971;28;20483;-85
2024/04/07 04:34:28;;;;;;;8.53;6.60;;;24.40;56.10;;;;;;4995654;28;20445;-84
2024/04/07 04:36:55;;;;;;;8.37;6.40;;;24.40;56.20;;;;;;4994824;28;20465;-84
2024/04/07 04:39:22;;;;;;;7.30;5.67;;;24.40;56.40;;;;;;4993483;28;20465;-85
2024/04/07 04:41:48;;;;;;;6.53;5.93;;;24.40;56.30;;;;;;4981273;28;20446;-85
2024/04/07 04:44:15;;;;;;;7.33;5.63;;;24.40;56.60;;;;;;4970450;28;20446;-84
2024/04/07 04:46:42;;;;;;;9.07;5.60;;;24.40;56.40;;;;;;4973533;28;20470;-84
2024/04/07 04:49:10;;;;;;;8.80;5.97;;;24.40;56.40;;;;;;4974515;28;20442;-84
2024/04/07 04:51:37;;;;;;;7.10;5.13;;;24.40;56.10;;;;;;4981064;28;20470;-84
2024/04/07 04:54:04;;;;;;;7.10;5.57;;;24.40;56.30;;;;;;4975087;28;20446;-84
2024/04/07 04:56:30;;;;;;;6.27;5.40;;;24.40;56.50;;;;;;4983319;28;20477;-84
2024/04/07 04:58:57;;;;;;;6.17;4.97;;;24.40;56.50;;;;;;4995643;28;20437;-84
2024/04/07 05:01:24;;;;;;;9.73;5.30;;;24.40;56.40;;;;;;4984793;28;20420;-85
2024/04/07 05:03:51;;;;;;;6.17;5.53;;;24.40;56.30;;;;;;4990730;28;20449;-85
2024/04/07 05:06:19;;;;;;;8.80;4.87;;;24.40;56.40;;;;;;4985510;28;20465;-84
2024/04/07 05:08:46;;;;;;;6.10;5.50;;;24.40;56.30;;;;;;4988255;28;20448;-85
2024/04/07 05:11:12;;;;;;;5.80;5.17;;;24.40;56.30;;;;;;4991964;28;20439;-85
2024/04/07 05:13:39;;;;;;;5.93;5.43;;;24.40;56.40;;;;;;4992202;28;20420;-85
2024/04/07 05:16:06;;;;;;;5.30;4.80;;;24.30;56.30;;;;;;4993269;28;20485;-85
2024/04/07 05:18:33;;;;;;;6.00;5.00;;;24.30;56.50;;;;;;4993955;28;20443;-85
2024/04/07 05:21:01;;;;;;;5.67;4.97;;;24.30;56.30;;;;;;4985500;28;20450;-85
2024/04/07 05:23:30;;;;;;;4.97;4.47;;;24.30;56.50;;;;;;4981026;28;20446;-85
2024/04/07 05:25:57;;;;;;;5.30;4.80;;;24.30;56.60;;;;;;4990624;28;20465;-86
2024/04/07 05:28:26;;;;;;;5.63;5.10;;;24.30;56.60;;;;;;4987160;28;20515;-86
2024/04/07 05:30:52;;;;;;;5.63;5.10;;;24.20;56.60;;;;;;4986030;28;20446;-85
2024/04/07 05:33:19;;;;;;;5.63;4.70;;;24.30;56.90;;;;;;4986301;28;20806;-85
2024/04/07 05:35:52;;;;;;;6.20;5.33;;;24.20;56.80;;;;;;4992719;28;20466;-86
2024/04/07 05:38:19;;;;;;;7.30;5.10;;;24.20;56.70;;;;;;4990058;28;20428;-86
2024/04/07 05:40:53;;;;;;;5.00;4.50;;;24.20;56.90;;;;;;4987060;28;20508;-86
2024/04/07 05:43:21;;;;;;;4.77;4.37;;;24.20;56.90;;;;;;4974571;28;20449;-86
2024/04/07 05:45:47;;;;;;;5.37;4.60;;;24.10;57.00;;;;;;4980468;28;20457;-86
2024/04/07 05:48:14;;;;;;;4.83;4.43;;;24.10;57.00;;;;;;4980116;28;20500;-86
2024/04/07 05:50:40;;;;;;;5.40;4.27;;;24.20;56.90;;;;;;4988568;28;20441;-86
2024/04/07 05:53:08;;;;;;;4.67;4.27;;;24.10;57.10;;;;;;4989082;28;20459;-85
2024/04/07 05:55:34;;;;;;;4.90;4.50;;;24.10;57.20;;;;;;4988161;28;20524;-86
2024/04/07 05:58:03;;;;;;;4.80;4.30;;;24.10;56.80;;;;;;4988198;28;20427;-85
2024/04/07 06:00:30;;;;;;;4.93;4.40;;;24.10;56.90;;;;;;4987276;28;20452;-85
2024/04/07 06:02:57;;;;;;;4.47;4.10;;;24.10;57.10;;;;;;4990294;28;20420;-84
2024/04/07 06:05:23;;;;;;;6.23;4.70;;;24.10;57.00;;;;;;4979945;28;20470;-84
2024/04/07 06:07:50;;;;;;;4.93;3.73;;;24.10;57.20;;;;;;4969534;28;20416;-84
2024/04/07 06:10:17;;;;;;;4.83;4.33;;;24.10;57.30;;;;;;4985853;28;20441;-85
2024/04/07 06:12:44;;;;;;;4.60;4.13;;;24.10;57.30;;;;;;4988807;28;20436;-85
2024/04/07 06:15:11;;;;;;;4.77;4.33;;;24.20;57.30;;;;;;4978252;28;20417;-85
2024/04/07 06:17:38;;;;;;;6.90;4.43;;;24.20;57.10;;;;;;4967055;28;20463;-85
2024/04/07 06:20:05;;;;;;;5.70;4.77;;;24.20;57.10;;;;;;4971618;28;20421;-85
2024/04/07 06:22:33;;;;;;;4.57;4.17;;;24.20;57.00;;;;;;4981068;28;20456;-84
2024/04/07 06:24:59;;;;;;;5.43;4.90;;;24.20;57.20;;;;;;4988205;28;20412;-82
2024/04/07 06:27:26;;;;;;;4.20;3.90;;;24.20;56.80;;;;;;4988214;28;20462;-84
2024/04/07 06:29:58;;;;;;;4.50;3.80;;;24.10;57.10;;;;;;4972828;28;20425;-85
2024/04/07 06:32:27;;;;;;;6.17;4.67;;;24.20;57.30;;;;;;4970094;28;20485;-85
2024/04/07 06:34:53;;;;;;;5.03;3.77;;;24.20;57.30;;;;;;4978394;28;20416;-85
2024/04/07 06:37:21;;;;;;;4.47;4.07;;;24.30;57.20;;;;;;4965886;28;20470;-85
2024/04/07 06:39:47;;;;;;;3.90;3.50;;;24.20;56.80;;;;;;4974995;28;20432;-86
2024/04/07 06:42:15;;;;;;;5.17;4.30;;;24.20;57.10;;;;;;4986939;28;20423;-85
2024/04/07 06:44:41;;;;;;;3.87;3.57;;;24.20;57.30;;;;;;4985688;28;20421;-86
2024/04/07 06:47:09;;;;;;;3.50;3.23;;;24.30;57.20;;;;;;4983471;28;20469;-86
2024/04/07 06:49:36;;;;;;;5.90;3.90;;;24.20;57.10;;;;;;4983276;28;20435;-85
2024/04/07 06:52:04;;;;;;;4.20;3.83;;;24.20;57.20;;;;;;4986662;28;20444;-85
2024/04/07 06:54:30;;;;;;;5.90;3.87;;;24.20;57.30;;;;;;4981438;28;20458;-86
2024/04/07 06:56:57;;;;;;;3.47;3.17;;;24.20;57.20;;;;;;4974834;28;20484;-84
2024/04/07 06:59:23;;;;;;;3.90;3.23;;;24.20;57.00;;;;;;4984312;28;20445;-85
2024/04/07 07:01:51;;;;;;;3.90;3.57;;;24.20;57.00;;;;;;4991590;28;20453;-85
2024/04/07 07:04:17;;;;;;;3.90;3.50;;;24.20;57.30;;;;;;4985970;28;20428;-84
2024/04/07 07:06:45;;;;;;;3.93;3.53;;;24.20;57.20;;;;;;4992423;28;20461;-85
2024/04/07 07:09:11;;;;;;;3.53;3.20;;;24.30;58.00;;;;;;4994560;28;20405;-88
2024/04/07 07:11:38;;;;;;;3.40;3.10;;;24.30;57.30;;;;;;4987815;28;20565;-87
2024/04/07 07:14:04;;;;;;;4.10;2.93;;;24.30;56.80;;;;;;4981352;28;20408;-86
2024/04/07 07:16:31;;;;;;;4.23;3.47;;;24.30;57.20;;;;;;4992210;28;20467;-86
2024/04/07 07:18:57;;;;;;;4.70;3.00;;;24.30;56.90;;;;;;4981881;28;20420;-86
2024/04/07 07:21:25;;;;;;;4.47;3.33;;;24.30;56.90;;;;;;4977204;28;20439;-86
2024/04/07 07:23:52;;;;;;;3.70;3.30;;;24.40;57.00;;;;;;4979928;28;20424;-86
2024/04/07 07:26:19;;;;;;;2.97;2.70;;;24.40;56.70;;;;;;4989901;28;20480;-86
2024/04/07 07:28:46;;;;;;;4.87;2.63;;;24.50;57.00;;;;;;4990870;28;20453;-85
2024/04/07 07:31:13;;;;;;;2.90;2.70;;;24.50;56.90;;;;;;4991877;28;20429;-86
2024/04/07 07:33:40;;;;;;;3.00;2.80;;;24.50;56.60;;;;;;4997189;28;20420;-85
2024/04/07 07:36:07;;;;;;;3.80;3.00;;;24.50;56.90;;;;;;4989006;28;20439;-86
2024/04/07 07:38:34;;;;;;;3.40;3.10;;;24.60;56.80;;;;;;4981758;28;20441;-86
2024/04/07 07:41:02;;;;;;;3.30;2.90;;;24.60;56.70;;;;;;4990916;28;20477;-86
2024/04/07 07:43:28;;;;;;;3.30;2.27;;;24.50;56.90;;;;;;4974619;28;20227;-86
2024/04/07 07:45:56;;;;;;;3.77;2.70;;;24.60;56.90;;;;;;4972111;28;20465;-86
2024/04/07 07:48:22;;;;;;;2.73;2.53;;;24.60;57.10;;;;;;4979690;28;20792;-87
2024/04/07 07:50:50;;;;;;;2.87;2.57;;;24.70;57.00;;;;;;4989384;28;20412;-85
2024/04/07 07:53:16;;;;;;;2.43;2.23;;;24.70;57.10;;;;;;4979489;28;20445;-85
2024/04/07 07:55:43;;;;;;;2.77;2.60;;;24.70;56.90;;;;;;4993148;28;20462;-85
2024/04/07 07:58:10;;;;;;;2.70;2.50;;;24.80;57.20;;;;;;4986058;28;20408;-86
2024/04/07 08:00:38;;;;;;;2.73;2.37;;;24.80;57.40;;;;;;4987535;28;20454;-86
2024/04/07 08:03:05;;;;;;;2.73;2.43;;;25.00;57.40;;;;;;4977467;28;20444;-84
2024/04/07 08:05:32;;;;;;;2.77;2.43;;;25.30;57.30;;;;;;4976207;28;20458;-85
2024/04/07 08:07:58;;;;;;;3.73;2.57;;;25.50;57.10;;;;;;4970222;28;20497;-84
2024/04/07 08:10:26;;;;;;;5.10;2.20;;;25.70;57.10;;;;;;4992189;28;20427;-86
2024/04/07 08:12:52;;;;;;;2.67;2.50;;;25.90;56.80;;;;;;4987621;28;20469;-84
2024/04/07 08:15:20;;;;;;;2.47;2.37;;;26.00;56.80;;;;;;5002282;28;20438;-85
2024/04/07 08:17:48;;;;;;;2.33;2.20;;;26.20;56.80;;;;;;4998221;28;20445;-85
2024/04/07 08:20:15;;;;;;;4.50;2.30;;;26.40;56.80;;;;;;4996148;28;20444;-85
2024/04/07 08:22:42;;;;;;;2.43;2.27;;;26.50;56.60;;;;;;4988881;28;20418;-84
2024/04/07 08:25:09;;;;;;;2.27;2.10;;;26.60;56.60;;;;;;4982450;28;20424;-84
2024/04/07 08:27:37;;;;;;;2.50;1.80;;;26.70;56.50;;;;;;4986017;28;20439;-85
2024/04/07 08:30:04;;;;;;;2.03;1.90;;;26.80;56.70;;;;;;4999127;28;20452;-84
2024/04/07 08:32:33;;;;;;;2.40;2.20;;;26.90;56.50;;;;;;4994096;28;20448;-81
2024/04/07 08:34:59;;;;;;;2.43;2.20;;;27.10;56.60;;;;;;4989951;28;20425;-84
2024/04/07 08:37:27;;;;;;;2.20;2.10;;;27.30;56.50;;;;;;4994550;28;20439;-85
2024/04/07 08:39:53;;;;;;;7.43;2.03;;;27.40;56.40;;;;;;5000747;28;20411;-84
2024/04/07 08:42:20;;;;;;;2.13;2.03;;;27.60;56.30;;;;;;4999918;28;20972;-84
2024/04/07 08:44:47;;;;;;;1.90;1.73;;;27.80;56.20;;;;;;4995014;28;20417;-85
2024/04/07 08:47:14;;;;;;;2.67;2.10;;;28.00;56.00;;;;;;5002682;28;20436;-84
2024/04/07 08:49:42;;;;;;;2.00;1.90;;;28.10;56.00;;;;;;4989203;28;20428;-84
2024/04/07 08:52:09;;;;;;;6.93;1.83;;;28.30;55.80;;;;;;4987340;28;20529;-85
2024/04/07 08:54:36;;;;;;;5.27;1.63;;;28.50;55.80;;;;;;4988472;28;20433;-85
2024/04/07 08:57:08;;;;;;;2.33;2.13;;;28.70;55.60;;;;;;4990438;28;20444;-85
2024/04/07 08:59:34;;;;;;;1.80;1.70;;;28.90;55.30;;;;;;4992590;28;20915;-85
2024/04/07 09:02:02;;;;;;;1.50;1.50;;;29.20;55.30;;;;;;4994909;28;20433;-86
2024/04/07 09:04:32;;;;;;;1.80;1.70;;;29.30;55.00;;;;;;4991494;28;20437;-81
2024/04/07 09:07:03;;;;;;;2.70;1.47;;;29.50;55.00;;;;;;4985688;28;20437;-84
2024/04/07 09:09:30;;;;;;;1.43;1.30;;;29.60;54.40;;;;;;4986874;28;20430;-84
2024/04/07 09:11:57;;;;;;;1.60;1.50;;;29.80;54.50;;;;;;4993991;28;20470;-85
2024/04/07 09:14:25;;;;;;;2.20;1.50;;;29.80;54.20;;;;;;4987744;28;20445;-85
2024/04/07 09:17:01;;;;;;;1.63;1.53;;;30.00;54.10;;;;;;4987473;28;20450;-85
2024/04/07 09:19:32;;;;;;;1.57;1.43;;;30.10;53.90;;;;;;4985543;28;20453;-85
2024/04/07 09:22:00;;;;;;;2.07;1.57;;;30.10;53.70;;;;;;4980882;28;20433;-85
2024/04/07 09:24:26;;;;;;;1.93;1.83;;;30.10;53.80;;;;;;4974778;28;20420;-85
2024/04/07 09:26:55;;;;;;;3.73;1.43;;;30.30;53.60;;;;;;4988350;28;20458;-84
2024/04/07 09:29:22;;;;;;;2.53;1.67;;;30.50;53.60;;;;;;4985014;28;20457;-83
2024/04/07 09:31:49;;;;;;;1.57;1.47;;;30.60;53.70;;;;;;4985556;28;20437;-84
2024/04/07 09:34:15;;;;;;;2.50;1.50;;;30.80;53.10;;;;;;4994957;28;20437;-85
2024/04/07 09:36:43;;;;;;;1.63;1.53;;;30.90;53.10;;;;;;4990918;28;20469;-84
2024/04/07 09:39:11;;;;;;;1.47;1.27;;;31.00;53.00;;;;;;4983972;28;20450;-85
2024/04/07 09:41:38;;;;;;;1.30;1.20;;;31.10;52.70;;;;;;4975317;28;20454;-85
2024/04/07 09:44:05;;;;;;;2.10;1.33;;;31.10;52.40;;;;;;4981273;28;20450;-84
2024/04/07 09:46:32;;;;;;;1.47;1.27;;;31.10;52.00;;;;;;4983984;28;20473;-84
2024/04/07 09:48:58;;;;;;;1.27;1.00;;;31.00;52.00;;;;;;4986584;28;20446;-85
2024/04/07 09:51:26;;;;;;;1.90;1.60;;;31.00;51.80;;;;;;4989631;28;20419;-82
2024/04/07 09:53:56;;;;;;;4.17;1.43;;;30.70;51.80;;;;;;4973859;28;20483;-83
2024/04/07 09:56:29;;;;;;;1.60;1.60;;;30.50;52.20;;;;;;4971843;28;20521;-82
2024/04/07 09:58:55;;;;;;;2.30;1.67;;;30.30;52.90;;;;;;4974206;28;20439;-83
2024/04/07 10:01:22;;;;;;;1.60;1.50;;;30.20;52.50;;;;;;4975931;28;20416;-81
2024/04/07 10:03:55;;;;;;;1.60;1.50;;;30.10;53.00;;;;;;4981651;28;20449;-82
2024/04/07 10:06:22;;;;;;;1.50;1.40;;;30.10;53.20;;;;;;4971617;28;20469;-81
2024/04/07 10:08:48;;;;;;;1.40;1.30;;;30.10;53.30;;;;;;4979609;28;20434;-79
2024/04/07 10:11:18;;;;;;;1.70;1.60;;;30.10;53.50;;;;;;4962775;28;20442;-80
2024/04/07 10:13:46;;;;;;;1.73;1.60;;;30.10;53.40;;;;;;4977026;28;20469;-82
2024/04/07 10:16:18;;;;;;;1.83;1.73;;;30.10;53.50;;;;;;4973567;28;20454;-83
2024/04/07 10:18:46;;;;;;;1.40;1.30;;;30.20;53.60;;;;;;4978160;28;20424;-82
2024/04/07 10:21:13;;;;;;;1.40;1.30;;;30.20;53.20;;;;;;4974798;28;20435;-82
2024/04/07 10:23:40;;;;;;;2.10;1.30;;;30.30;53.10;;;;;;4976095;28;20956;-82
2024/04/07 10:26:08;;;;;;;1.50;1.40;;;30.30;53.10;;;;;;4970068;28;20461;-82
2024/04/07 10:28:46;;;;;;;2.00;1.60;;;30.40;52.70;;;;;;4972416;28;20424;-82
2024/04/07 10:31:13;;;;;;;1.40;1.30;;;30.50;53.00;;;;;;4980388;28;20448;-82
2024/04/07 10:33:41;;;;;;;1.40;1.30;;;30.60;52.50;;;;;;4979936;28;20477;-83
2024/04/07 10:36:09;;;;;;;1.30;1.20;;;30.60;52.60;;;;;;4967703;28;20460;-82
2024/04/07 10:38:45;;;;;;;1.77;1.67;;;30.60;52.40;;;;;;4978728;28;20477;-83
2024/04/07 10:41:17;;;;;;;1.30;1.20;;;30.60;52.00;;;;;;4965906;28;20461;-82
2024/04/07 10:43:43;;;;;;;1.43;1.33;;;30.70;52.40;;;;;;4980049;28;20434;-82
2024/04/07 10:46:12;;;;;;;2.20;1.60;;;30.70;52.20;;;;;;4966103;28;20469;-81
2024/04/07 10:48:39;;;;;;;1.37;1.30;;;30.80;52.20;;;;;;4966631;28;20442;-83
2024/04/07 10:51:09;;;;;;;3.53;1.67;;;30.70;51.80;;;;;;4981339;28;21016;-83
2024/04/07 10:53:36;;;;;;;2.30;1.40;;;30.60;51.60;;;;;;4981252;28;20477;-83
2024/04/07 10:56:03;;;;;;;1.27;1.17;;;30.70;51.10;;;;;;4979068;28;20462;-83
2024/04/07 10:58:30;;;;;;;0.80;0.80;;;30.80;50.00;;;;;;4964371;28;20431;-79
2024/04/07 11:00:57;;;;;;;2.63;1.20;;;30.10;39.50;;;;;;4975392;28;20441;-81
2024/04/07 11:03:25;;;;;;;2.50;0.97;;;28.40;41.50;;;;;;4977569;28;20457;-81
2024/04/07 11:05:52;;;;;;;1.43;0.90;;;27.60;42.90;;;;;;4976602;28;20473;-79
2024/04/07 11:08:19;;;;;;;1.63;0.90;;;26.20;43.40;;;;;;4967461;28;20454;-82
2024/04/07 11:10:51;;;;;;;4.63;1.00;;;25.90;43.20;;;;;;4960681;28;20413;-80
2024/04/07 11:13:17;;;;;;;5.80;0.93;;;25.00;43.20;;;;;;4968480;28;20500;-81
2024/04/07 11:15:45;;;;;;;1.43;0.90;;;24.80;43.50;;;;;;4978570;28;20436;-80
2024/04/07 11:18:12;;;;;;;1.97;0.83;;;24.70;44.20;;;;;;4975374;28;20451;-81
2024/04/07 11:20:44;;;;;;;3.70;0.80;;;24.30;44.70;;;;;;4976017;28;20445;-79
2024/04/07 11:23:10;;;;;;;1.97;0.70;;;24.80;44.30;;;;;;4965495;28;20508;-78
2024/04/07 11:25:39;;;;;;;2.67;0.90;;;25.20;43.80;;;;;;4978000;28;20452;-81
2024/04/07 11:28:05;;;;;;;1.93;0.93;;;26.30;42.90;;;;;;4970425;28;20448;-80
2024/04/07 11:30:36;;;;;;;2.73;1.10;;;27.00;41.60;;;;;;4976580;28;20446;-80
2024/04/07 11:33:06;;;;;;;1.20;0.80;;;27.80;42.00;;;;;;4980392;28;20443;-80
2024/04/07 11:35:33;;;;;;;2.30;1.00;;;26.60;39.90;;;;;;4977887;28;20415;-79
2024/04/07 11:38:01;;;;;;;2.23;1.20;;;25.00;42.00;;;;;;4965060;28;20446;-79
2024/04/07 11:40:28;;;;;;;2.87;1.00;;;24.20;45.00;;;;;;4958224;28;20438;-77
2024/04/07 11:42:55;;;;;;;1.43;0.73;;;24.60;45.00;;;;;;4967190;28;20429;-78
2024/04/07 11:45:22;;;;;;;2.40;0.90;;;25.10;43.60;;;;;;4970645;28;20441;-78
2024/04/07 11:47:48;;;;;;;1.57;0.90;;;26.30;42.30;;;;;;4970329;28;20454;-78
2024/04/07 11:50:15;;;;;;;1.80;0.90;;;27.00;42.10;;;;;;4969383;28;20420;-78
2024/04/07 11:52:41;;;;;;;0.60;0.60;;;27.40;40.20;;;;;;4979497;28;20469;-80
2024/04/07 11:55:10;;;;;;;0.80;0.60;;;28.80;37.40;;;;;;4975309;28;20464;-81
2024/04/07 11:57:36;;;;;;;0.97;0.87;;;29.70;37.80;;;;;;4975895;28;20481;-83
2024/04/07 12:00:04;;;;;;;2.33;0.90;;;30.60;35.50;;;;;;4978981;28;20438;-81
2024/04/07 12:02:31;;;;;;;3.67;0.97;;;30.90;35.20;;;;;;4968737;28;20461;-79
2024/04/07 12:04:58;;;;;;;2.43;0.83;;;30.50;34.60;;;;;;4973691;28;20435;-81
2024/04/07 12:07:24;;;;;;;4.40;0.70;;;30.60;34.20;;;;;;4969165;28;20481;-83
2024/04/07 12:09:52;;;;;;;1.33;0.80;;;31.10;36.20;;;;;;4982319;28;20438;-82
2024/04/07 12:12:19;;;;;;;2.70;0.70;;;31.40;32.70;;;;;;4972370;28;20457;-85
2024/04/07 12:14:46;;;;;;;2.63;1.17;;;29.20;35.20;;;;;;4972553;28;20441;-84
2024/04/07 12:17:12;;;;;;;1.20;0.80;;;28.70;37.70;;;;;;4974686;28;20454;-79
2024/04/07 12:19:39;;;;;;;1.23;0.73;;;30.00;36.30;;;;;;4970158;28;20450;-81
2024/04/07 12:22:08;;;;;;;0.87;0.87;;;30.70;35.80;;;;;;4962231;28;20442;-81
2024/04/07 12:24:35;;;;;;;2.27;1.03;;;30.50;33.30;;;;;;4973672;28;20455;-80
2024/04/07 12:27:01;;;;;;;4.67;0.90;;;28.60;35.80;;;;;;4969357;28;20980;-79
2024/04/07 12:29:30;;;;;;;2.40;0.87;;;29.00;36.40;;;;;;4980235;28;20445;-80
2024/04/07 12:31:56;;;;;;;3.37;1.53;;;28.80;37.40;;;;;;4974887;28;20454;-79
2024/04/07 12:34:24;;;;;;;1.50;0.80;;;28.60;37.80;;;;;;4984899;28;20469;-81
2024/04/07 12:36:50;;;;;;;2.40;1.20;;;29.30;38.40;;;;;;4965210;28;20458;-81
2024/04/07 12:39:17;;;;;;;1.60;0.83;;;31.50;35.40;;;;;;4965591;28;20454;-82
2024/04/07 12:41:45;;;;;;;1.80;0.70;;;33.10;33.60;;;;;;4975286;28;20445;-80
2024/04/07 12:44:12;;;;;;;0.60;0.60;;;35.30;30.60;;;;;;4979098;28;20434;-82
2024/04/07 12:46:39;;;;;;;2.10;1.10;;;36.80;28.90;;;;;;4984130;28;20976;-81
2024/04/07 12:49:07;;;;;;;1.00;0.73;;;37.20;27.40;;;;;;4980815;28;20449;-80